Time;durP1;ratioP1;P1;durP2;ratioP2;P2;SDS_P1;SDS_P2;PMS_P1;PMS_P2;Temp;Humidity;BMP_temperature;BMP_pressure;BME280_temperature;BME280_humidity;BME280_pressure;Samples;Min_cycle;Max_cycle;Signal;HPM_P1;HPM_P2
2024/01/22 00:00:36;;;;;;;13.30;4.95;;;;;;;;;;5082270;28;20502;-65
2024/01/22 00:03:03;;;;;;;13.45;5.97;;;;;;;;;;5081630;28;20056;-66
2024/01/22 00:05:30;;;;;;;10.65;4.95;;;;;;;;;;5080364;28;20051;-66
2024/01/22 00:07:57;;;;;;;10.90;5.00;;;;;;;;;;5085958;28;20067;-65
2024/01/22 00:10:26;;;;;;;12.93;5.15;;;;;;;;;;5085249;28;20453;-65
2024/01/22 00:12:53;;;;;;;13.32;5.43;;;;;;;;;;5078802;28;20307;-65
2024/01/22 00:15:21;;;;;;;12.07;5.07;;;;;;;;;;5085696;28;20043;-64
2024/01/22 00:17:48;;;;;;;13.38;4.88;;;;;;;;;;5082434;28;20063;-63
2024/01/22 00:20:15;;;;;;;8.98;4.50;;;;;;;;;;5059297;28;20052;-63
2024/01/22 00:22:42;;;;;;;10.65;4.03;;;;;;;;;;5082484;28;20475;-63
2024/01/22 00:25:09;;;;;;;10.93;5.38;;;;;;;;;;5073034;28;20048;-63
2024/01/22 00:27:38;;;;;;;12.25;4.50;;;;;;;;;;5083374;28;20372;-63
2024/01/22 00:30:06;;;;;;;15.55;5.28;;;;;;;;;;5073652;28;20067;-64
2024/01/22 00:32:33;;;;;;;9.95;4.63;;;;;;;;;;5079274;28;20051;-63
2024/01/22 00:35:00;;;;;;;10.13;5.00;;;;;;;;;;5077467;28;20044;-63
2024/01/22 00:37:27;;;;;;;10.88;4.18;;;;;;;;;;5079476;28;20059;-64
2024/01/22 00:39:56;;;;;;;13.48;5.55;;;;;;;;;;5074710;28;20055;-64
2024/01/22 00:42:23;;;;;;;11.85;4.97;;;;;;;;;;5076234;28;20048;-64
2024/01/22 00:44:52;;;;;;;12.90;5.22;;;;;;;;;;5078222;28;20044;-64
2024/01/22 00:47:19;;;;;;;16.70;5.97;;;;;;;;;;5081561;28;20052;-64
2024/01/22 00:49:46;;;;;;;10.20;5.20;;;;;;;;;;5085545;28;20063;-64
2024/01/22 00:52:14;;;;;;;11.98;5.97;;;;;;;;;;5080210;28;20040;-64
2024/01/22 00:54:41;;;;;;;12.77;5.22;;;;;;;;;;5079146;28;20040;-64
2024/01/22 00:57:09;;;;;;;11.13;5.65;;;;;;;;;;5076907;28;20058;-65
2024/01/22 00:59:37;;;;;;;11.32;5.43;;;;;;;;;;5083350;28;20050;-66
2024/01/22 01:02:06;;;;;;;13.73;6.15;;;;;;;;;;5084932;28;20411;-65
2024/01/22 01:04:33;;;;;;;13.38;6.07;;;;;;;;;;5060753;28;20334;-65
2024/01/22 01:07:00;;;;;;;15.30;6.10;;;;;;;;;;5084962;28;20541;-65
2024/01/22 01:09:27;;;;;;;14.57;6.20;;;;;;;;;;5080209;28;20105;-66
2024/01/22 01:11:55;;;;;;;14.68;6.40;;;;;;;;;;5080594;28;20071;-64
2024/01/22 01:14:22;;;;;;;15.32;6.80;;;;;;;;;;5078806;28;20053;-64
2024/01/22 01:16:49;;;;;;;14.45;6.55;;;;;;;;;;5077269;28;20048;-64
2024/01/22 01:19:18;;;;;;;13.98;6.15;;;;;;;;;;5078115;28;20053;-63
2024/01/22 01:21:45;;;;;;;10.38;5.78;;;;;;;;;;5076354;28;20047;-64
2024/01/22 01:24:12;;;;;;;12.25;5.55;;;;;;;;;;5076099;28;20044;-64
2024/01/22 01:26:43;;;;;;;12.90;5.50;;;;;;;;;;5077085;28;20098;-64
2024/01/22 01:29:10;;;;;;;11.15;5.43;;;;;;;;;;5072572;28;20514;-64
2024/01/22 01:31:37;;;;;;;11.70;5.88;;;;;;;;;;5079925;28;20472;-64
2024/01/22 01:34:05;;;;;;;14.35;5.55;;;;;;;;;;5071594;28;20057;-64
2024/01/22 01:36:33;;;;;;;15.73;5.35;;;;;;;;;;5067088;28;20376;-65
2024/01/22 01:39:01;;;;;;;11.80;5.65;;;;;;;;;;5077353;28;20395;-64
2024/01/22 01:41:28;;;;;;;12.55;5.60;;;;;;;;;;5073015;28;20067;-63
2024/01/22 01:43:55;;;;;;;12.65;5.50;;;;;;;;;;5077145;28;20058;-65
2024/01/22 01:46:22;;;;;;;14.00;5.15;;;;;;;;;;5077371;28;20055;-64
2024/01/22 01:48:50;;;;;;;12.63;5.78;;;;;;;;;;5062628;28;20052;-64
2024/01/22 01:51:17;;;;;;;15.82;6.00;;;;;;;;;;5079702;28;20040;-64
2024/01/22 01:53:47;;;;;;;14.45;6.40;;;;;;;;;;5080985;28;20398;-65
2024/01/22 01:56:14;;;;;;;9.73;5.30;;;;;;;;;;5085373;28;20059;-65
2024/01/22 01:58:42;;;;;;;15.68;6.63;;;;;;;;;;5076176;28;20055;-64
2024/01/22 02:01:09;;;;;;;10.65;5.60;;;;;;;;;;5078600;28;20048;-64
2024/01/22 02:03:36;;;;;;;9.30;5.00;;;;;;;;;;5080712;28;20458;-65
2024/01/22 02:06:04;;;;;;;14.27;6.38;;;;;;;;;;5073837;28;20068;-64
2024/01/22 02:08:31;;;;;;;11.20;5.63;;;;;;;;;;5063320;28;20451;-65
2024/01/22 02:10:59;;;;;;;12.68;5.60;;;;;;;;;;5073451;28;20475;-64
2024/01/22 02:13:28;;;;;;;16.63;6.13;;;;;;;;;;5077838;28;20040;-64
2024/01/22 02:15:55;;;;;;;13.52;5.15;;;;;;;;;;5061779;28;20056;-64
2024/01/22 02:18:23;;;;;;;11.27;4.95;;;;;;;;;;5074394;28;20091;-64
2024/01/22 02:20:50;;;;;;;13.57;4.93;;;;;;;;;;5077090;28;20376;-64
2024/01/22 02:23:18;;;;;;;10.98;4.80;;;;;;;;;;5081236;28;20044;-64
2024/01/22 02:25:46;;;;;;;7.85;4.05;;;;;;;;;;5056804;28;20048;-63
2024/01/22 02:28:13;;;;;;;19.02;5.00;;;;;;;;;;5069005;28;20553;-64
2024/01/22 02:30:40;;;;;;;14.68;4.70;;;;;;;;;;5072752;28;20060;-64
2024/01/22 02:33:07;;;;;;;15.90;4.35;;;;;;;;;;5076169;28;20372;-64
2024/01/22 02:35:35;;;;;;;16.02;4.68;;;;;;;;;;5073558;28;20044;-64
2024/01/22 02:38:02;;;;;;;9.90;3.83;;;;;;;;;;5073927;28;20052;-64
2024/01/22 02:40:31;;;;;;;9.63;3.80;;;;;;;;;;5071629;28;20131;-63
2024/01/22 02:42:58;;;;;;;9.65;3.90;;;;;;;;;;5073496;28;20133;-64
2024/01/22 02:45:25;;;;;;;9.45;4.28;;;;;;;;;;5080164;28;20056;-64
2024/01/22 02:47:52;;;;;;;10.00;4.22;;;;;;;;;;5075204;28;20059;-64
2024/01/22 02:50:20;;;;;;;7.85;4.15;;;;;;;;;;5073032;28;20047;-65
2024/01/22 02:52:47;;;;;;;8.95;3.63;;;;;;;;;;5079417;28;20105;-64
2024/01/22 02:55:14;;;;;;;7.78;3.58;;;;;;;;;;5079052;28;20048;-64
2024/01/22 02:57:43;;;;;;;12.18;3.85;;;;;;;;;;5060402;28;20058;-64
2024/01/22 03:00:10;;;;;;;10.77;4.05;;;;;;;;;;5072021;28;20044;-66
2024/01/22 03:02:37;;;;;;;10.13;3.80;;;;;;;;;;5084036;28;20040;-66
2024/01/22 03:05:05;;;;;;;7.90;3.95;;;;;;;;;;5056374;28;20052;-65
2024/01/22 03:07:32;;;;;;;11.70;4.28;;;;;;;;;;5079087;28;20450;-66
2024/01/22 03:10:00;;;;;;;17.63;5.07;;;;;;;;;;5077469;28;20049;-65
2024/01/22 03:12:27;;;;;;;8.02;3.83;;;;;;;;;;5072952;28;20044;-66
2024/01/22 03:14:55;;;;;;;10.20;4.60;;;;;;;;;;5079392;28;20059;-66
2024/01/22 03:17:23;;;;;;;12.93;4.97;;;;;;;;;;5055792;28;20465;-66
2024/01/22 03:19:50;;;;;;;11.13;4.97;;;;;;;;;;5083472;28;20080;-66
2024/01/22 03:22:17;;;;;;;9.93;4.18;;;;;;;;;;5080031;28;20051;-66
2024/01/22 03:24:46;;;;;;;9.43;3.72;;;;;;;;;;5074460;28;20044;-66
2024/01/22 03:27:14;;;;;;;6.47;3.85;;;;;;;;;;5077490;28;20048;-66
2024/01/22 03:29:41;;;;;;;11.45;4.10;;;;;;;;;;5077896;28;20052;-66
2024/01/22 03:32:10;;;;;;;11.18;4.60;;;;;;;;;;5072663;28;20040;-66
2024/01/22 03:34:37;;;;;;;11.35;4.10;;;;;;;;;;5079902;28;20059;-65
2024/01/22 03:37:04;;;;;;;7.55;3.53;;;;;;;;;;5083456;28;20052;-65
2024/01/22 03:39:31;;;;;;;9.70;3.50;;;;;;;;;;5071624;28;20053;-64
2024/01/22 03:41:59;;;;;;;10.25;3.58;;;;;;;;;;5079563;28;20063;-64
2024/01/22 03:44:26;;;;;;;6.95;3.85;;;;;;;;;;5082978;28;20656;-63
2024/01/22 03:46:53;;;;;;;6.28;2.90;;;;;;;;;;5074187;28;20492;-64
2024/01/22 03:49:22;;;;;;;6.88;3.80;;;;;;;;;;5076054;28;20398;-64
2024/01/22 03:51:49;;;;;;;8.30;3.50;;;;;;;;;;5076470;28;20044;-64
2024/01/22 03:54:16;;;;;;;8.00;3.22;;;;;;;;;;5075402;28;20068;-64
2024/01/22 03:56:44;;;;;;;6.40;3.47;;;;;;;;;;5079419;28;20041;-64
2024/01/22 03:59:11;;;;;;;6.85;3.13;;;;;;;;;;5074755;28;20070;-64
2024/01/22 04:01:38;;;;;;;12.88;3.83;;;;;;;;;;5074207;28;20052;-64
2024/01/22 04:04:06;;;;;;;8.18;3.17;;;;;;;;;;5071726;28;20055;-64
2024/01/22 04:06:34;;;;;;;5.10;3.00;;;;;;;;;;5073509;28;20586;-64
2024/01/22 04:09:02;;;;;;;7.60;3.00;;;;;;;;;;5078088;28;20056;-64
2024/01/22 04:11:29;;;;;;;7.15;3.28;;;;;;;;;;5078011;28;20054;-64
2024/01/22 04:13:56;;;;;;;9.48;3.53;;;;;;;;;;5079977;28;20056;-64
2024/01/22 04:16:24;;;;;;;9.68;3.17;;;;;;;;;;5077495;28;20045;-65
2024/01/22 04:18:51;;;;;;;7.90;3.20;;;;;;;;;;5076997;28;20091;-64
2024/01/22 04:21:18;;;;;;;8.18;3.00;;;;;;;;;;5072350;28;20049;-64
2024/01/22 04:23:47;;;;;;;7.03;2.90;;;;;;;;;;5075763;28;20546;-64
2024/01/22 04:26:14;;;;;;;8.27;2.88;;;;;;;;;;5070222;28;20055;-64
2024/01/22 04:28:41;;;;;;;6.07;3.20;;;;;;;;;;5075629;28;20854;-64
2024/01/22 04:31:08;;;;;;;9.10;3.38;;;;;;;;;;5078386;28;20510;-64
2024/01/22 04:33:36;;;;;;;6.20;3.30;;;;;;;;;;5074027;28;20075;-63
2024/01/22 04:36:03;;;;;;;7.65;3.65;;;;;;;;;;5079349;28;20051;-64
2024/01/22 04:38:31;;;;;;;4.50;3.20;;;;;;;;;;5076946;28;20047;-64
2024/01/22 04:40:59;;;;;;;5.40;3.38;;;;;;;;;;5076057;28;20074;-64
2024/01/22 04:43:27;;;;;;;6.35;3.28;;;;;;;;;;5074854;28;20040;-64
2024/01/22 04:45:54;;;;;;;5.45;3.35;;;;;;;;;;5074578;28;20131;-64
2024/01/22 04:48:22;;;;;;;8.35;4.10;;;;;;;;;;5080181;28;20055;-64
2024/01/22 04:50:49;;;;;;;6.00;3.53;;;;;;;;;;5080900;28;20055;-64
2024/01/22 04:53:17;;;;;;;9.77;3.80;;;;;;;;;;5053763;28;20476;-64
2024/01/22 04:55:44;;;;;;;6.25;3.75;;;;;;;;;;5073909;28;20062;-65
2024/01/22 04:58:13;;;;;;;6.15;3.63;;;;;;;;;;5077372;28;20059;-64
2024/01/22 05:00:40;;;;;;;7.90;3.80;;;;;;;;;;5077033;28;20048;-64
2024/01/22 05:03:07;;;;;;;5.15;3.63;;;;;;;;;;5083686;28;20052;-64
2024/01/22 05:05:35;;;;;;;6.07;2.83;;;;;;;;;;5080430;28;20078;-65
2024/01/22 05:08:02;;;;;;;4.10;2.90;;;;;;;;;;5075253;28;20086;-65
2024/01/22 05:10:29;;;;;;;7.55;3.85;;;;;;;;;;5067227;28;20054;-65
2024/01/22 05:12:57;;;;;;;4.18;3.00;;;;;;;;;;5079158;28;20040;-64
2024/01/22 05:15:25;;;;;;;9.43;3.38;;;;;;;;;;5081402;28;20051;-64
2024/01/22 05:17:53;;;;;;;9.02;2.75;;;;;;;;;;5083442;28;20041;-64
2024/01/22 05:20:20;;;;;;;7.82;2.25;;;;;;;;;;5085966;28;20138;-64
2024/01/22 05:22:48;;;;;;;6.70;2.05;;;;;;;;;;5088762;28;20055;-64
2024/01/22 05:25:15;;;;;;;8.10;1.77;;;;;;;;;;5072649;28;20402;-64
2024/01/22 05:27:45;;;;;;;8.80;1.85;;;;;;;;;;5082078;28;20093;-64
2024/01/22 05:30:12;;;;;;;11.38;1.83;;;;;;;;;;5082944;28;20048;-64
2024/01/22 05:32:41;;;;;;;9.23;1.88;;;;;;;;;;5082545;28;20036;-64
2024/01/22 05:35:09;;;;;;;7.40;1.75;;;;;;;;;;5081793;28;20578;-64
2024/01/22 05:37:36;;;;;;;12.43;1.67;;;;;;;;;;5077500;28;20048;-64
2024/01/22 05:40:05;;;;;;;10.98;2.50;;;;;;;;;;5081033;28;20072;-64
2024/01/22 05:42:32;;;;;;;12.05;1.98;;;;;;;;;;5078817;28;20390;-64
2024/01/22 05:45:00;;;;;;;10.68;1.67;;;;;;;;;;5055564;28;20506;-63
2024/01/22 05:47:27;;;;;;;9.15;1.98;;;;;;;;;;5062135;28;20127;-65
2024/01/22 05:49:55;;;;;;;10.30;2.10;;;;;;;;;;5061016;28;20051;-64
2024/01/22 05:52:23;;;;;;;11.32;1.92;;;;;;;;;;5080882;28;20052;-64
2024/01/22 05:54:50;;;;;;;9.85;1.75;;;;;;;;;;5081577;28;20074;-64
2024/01/22 05:57:17;;;;;;;14.48;1.92;;;;;;;;;;5084480;28;20174;-64
2024/01/22 05:59:45;;;;;;;9.93;1.90;;;;;;;;;;5074096;28;20040;-64
2024/01/22 06:02:12;;;;;;;15.30;2.20;;;;;;;;;;5082004;28;20058;-64
2024/01/22 06:04:39;;;;;;;14.68;2.35;;;;;;;;;;5062336;28;20487;-65
2024/01/22 06:07:08;;;;;;;18.20;2.17;;;;;;;;;;5073472;28;20048;-64
2024/01/22 06:09:35;;;;;;;15.20;2.50;;;;;;;;;;5084972;28;20048;-64
2024/01/22 06:12:02;;;;;;;14.02;2.53;;;;;;;;;;5071159;28;20141;-64
2024/01/22 06:14:29;;;;;;;19.60;3.38;;;;;;;;;;5080061;28;20436;-64
2024/01/22 06:16:57;;;;;;;20.15;2.78;;;;;;;;;;5073075;28;20164;-64
2024/01/22 06:19:24;;;;;;;20.70;3.42;;;;;;;;;;5078063;28;20502;-65
2024/01/22 06:21:51;;;;;;;18.35;2.75;;;;;;;;;;5072443;28;20051;-64
2024/01/22 06:24:20;;;;;;;22.15;3.40;;;;;;;;;;5077236;28;20044;-64
2024/01/22 06:26:47;;;;;;;19.88;2.90;;;;;;;;;;5075849;28;20060;-64
2024/01/22 06:29:14;;;;;;;27.13;3.78;;;;;;;;;;5079122;28;20048;-64
2024/01/22 06:31:42;;;;;;;34.00;3.90;;;;;;;;;;5078291;28;20128;-64
2024/01/22 06:34:11;;;;;;;30.00;4.97;;;;;;;;;;5074385;28;20055;-65
2024/01/22 06:36:38;;;;;;;28.85;4.35;;;;;;;;;;5071429;28;20044;-64
2024/01/22 06:39:08;;;;;;;36.28;4.03;;;;;;;;;;5072875;28;20048;-64
2024/01/22 06:41:36;;;;;;;31.17;4.63;;;;;;;;;;5074464;28;20040;-63
2024/01/22 06:44:04;;;;;;;39.20;5.22;;;;;;;;;;5079731;28;20051;-63
2024/01/22 06:46:31;;;;;;;36.08;4.10;;;;;;;;;;5078258;28;20073;-64
2024/01/22 06:48:58;;;;;;;40.38;5.00;;;;;;;;;;5070015;28;20048;-64
2024/01/22 06:51:26;;;;;;;44.33;4.72;;;;;;;;;;5074238;28;20051;-64
2024/01/22 06:53:53;;;;;;;36.00;6.40;;;;;;;;;;5072238;28;20515;-64
2024/01/22 06:56:20;;;;;;;40.40;4.43;;;;;;;;;;5079787;28;20053;-64
2024/01/22 06:58:49;;;;;;;41.13;6.78;;;;;;;;;;5076228;28;20048;-63
2024/01/22 07:01:16;;;;;;;37.75;4.88;;;;;;;;;;5076807;28;20135;-66
2024/01/22 07:03:43;;;;;;;49.47;5.78;;;;;;;;;;5078988;28;20388;-66
2024/01/22 07:06:11;;;;;;;45.85;5.43;;;;;;;;;;5077032;28;20052;-66
2024/01/22 07:08:38;;;;;;;47.42;7.47;;;;;;;;;;5083190;28;20040;-66
2024/01/22 07:11:06;;;;;;;41.47;5.65;;;;;;;;;;5077972;28;20075;-65
2024/01/22 07:13:34;;;;;;;57.30;8.57;;;;;;;;;;5079308;28;20535;-64
2024/01/22 07:16:02;;;;;;;44.97;5.55;;;;;;;;;;5074786;28;20582;-64
2024/01/22 07:18:30;;;;;;;75.07;7.78;;;;;;;;;;5075060;28;20051;-65
2024/01/22 07:20:57;;;;;;;45.35;5.90;;;;;;;;;;5075158;28;20062;-65
2024/01/22 07:23:24;;;;;;;44.72;6.32;;;;;;;;;;5074876;28;20547;-65
2024/01/22 07:25:54;;;;;;;46.60;5.82;;;;;;;;;;5071928;28;20052;-64
2024/01/22 07:28:21;;;;;;;52.83;6.18;;;;;;;;;;5069615;28;20075;-64
2024/01/22 07:30:48;;;;;;;44.80;5.05;;;;;;;;;;5075788;28;20059;-64
2024/01/22 07:33:17;;;;;;;32.95;5.40;;;;;;;;;;5078179;28;20182;-64
2024/01/22 07:35:44;;;;;;;36.65;4.43;;;;;;;;;;5077235;28;20131;-64
2024/01/22 07:38:11;;;;;;;32.30;4.63;;;;;;;;;;5074496;28;20044;-64
2024/01/22 07:40:39;;;;;;;45.40;5.40;;;;;;;;;;5074946;28;20143;-63
2024/01/22 07:43:06;;;;;;;44.47;4.93;;;;;;;;;;5074919;28;20135;-63
2024/01/22 07:45:35;;;;;;;33.83;5.30;;;;;;;;;;5074337;28;20106;-63
2024/01/22 07:48:02;;;;;;;35.58;5.13;;;;;;;;;;5075266;28;20051;-64
2024/01/22 07:50:30;;;;;;;30.92;4.78;;;;;;;;;;5076805;28;20052;-63
2024/01/22 07:52:58;;;;;;;35.70;4.43;;;;;;;;;;5080969;28;20044;-63
2024/01/22 07:55:25;;;;;;;29.63;3.90;;;;;;;;;;5073565;28;20071;-63
2024/01/22 07:57:52;;;;;;;32.03;4.43;;;;;;;;;;5084625;28;20059;-64
2024/01/22 08:00:20;;;;;;;25.52;3.05;;;;;;;;;;5074924;28;20059;-63
2024/01/22 08:02:47;;;;;;;34.17;4.75;;;;;;;;;;5078242;28;20053;-63
2024/01/22 08:05:14;;;;;;;30.50;4.07;;;;;;;;;;5079117;28;20063;-64
2024/01/22 08:07:43;;;;;;;34.92;4.28;;;;;;;;;;5068197;28;20048;-63
2024/01/22 08:10:12;;;;;;;34.10;4.45;;;;;;;;;;5075109;28;20048;-63
2024/01/22 08:12:40;;;;;;;35.35;5.35;;;;;;;;;;5075402;28;20113;-63
2024/01/22 08:15:09;;;;;;;38.13;4.65;;;;;;;;;;5085236;28;20500;-63
2024/01/22 08:17:37;;;;;;;35.65;4.28;;;;;;;;;;5083194;28;20056;-63
2024/01/22 08:20:06;;;;;;;36.22;4.70;;;;;;;;;;5082863;28;20052;-64
2024/01/22 08:22:33;;;;;;;40.88;5.05;;;;;;;;;;5081382;28;20117;-63
2024/01/22 08:25:02;;;;;;;34.15;4.32;;;;;;;;;;5075151;28;20431;-63
2024/01/22 08:27:29;;;;;;;36.10;4.55;;;;;;;;;;5074057;28;20076;-64
2024/01/22 08:29:56;;;;;;;42.88;4.88;;;;;;;;;;5074022;28;20059;-63
2024/01/22 08:32:23;;;;;;;33.50;4.32;;;;;;;;;;5076754;28;20076;-64
2024/01/22 08:34:51;;;;;;;41.25;4.85;;;;;;;;;;5075492;28;20067;-64
2024/01/22 08:37:18;;;;;;;67.10;6.10;;;;;;;;;;5073832;28;20066;-64
2024/01/22 08:39:45;;;;;;;50.25;5.95;;;;;;;;;;5076166;28;20056;-64
2024/01/22 08:42:14;;;;;;;72.63;7.10;;;;;;;;;;5083278;28;20055;-64
2024/01/22 08:44:41;;;;;;;54.92;7.40;;;;;;;;;;5080831;28;20054;-63
2024/01/22 08:47:08;;;;;;;55.38;7.68;;;;;;;;;;5078910;28;20127;-63
2024/01/22 08:49:35;;;;;;;67.63;8.15;;;;;;;;;;5076529;28;20541;-63
2024/01/22 08:52:03;;;;;;;77.75;9.02;;;;;;;;;;5080307;28;20053;-63
2024/01/22 08:54:30;;;;;;;74.25;10.20;;;;;;;;;;5079564;28;20392;-63
2024/01/22 08:56:57;;;;;;;62.33;7.57;;;;;;;;;;5080413;28;20051;-63
2024/01/22 08:59:26;;;;;;;63.30;8.20;;;;;;;;;;5080989;28;21107;-63
2024/01/22 09:01:53;;;;;;;68.50;8.82;;;;;;;;;;5082012;28;20128;-63
2024/01/22 09:04:21;;;;;;;54.95;6.60;;;;;;;;;;5072406;28;20045;-63
2024/01/22 09:06:48;;;;;;;66.18;8.55;;;;;;;;;;5076709;28;20083;-63
2024/01/22 09:09:16;;;;;;;73.07;8.88;;;;;;;;;;5081240;28;20501;-63
2024/01/22 09:11:43;;;;;;;56.10;8.02;;;;;;;;;;5076284;28;20055;-63
2024/01/22 09:14:10;;;;;;;54.90;8.55;;;;;;;;;;5078678;28;20079;-63
2024/01/22 09:16:39;;;;;;;54.78;7.72;;;;;;;;;;5074356;28;20044;-63
2024/01/22 09:19:06;;;;;;;68.90;9.35;;;;;;;;;;5073201;28;20458;-64
2024/01/22 09:21:33;;;;;;;45.10;7.07;;;;;;;;;;5079934;28;20052;-63
2024/01/22 09:24:01;;;;;;;53.30;7.07;;;;;;;;;;5070192;28;20048;-63
2024/01/22 09:26:28;;;;;;;51.38;8.35;;;;;;;;;;5073814;28;20428;-63
2024/01/22 09:28:55;;;;;;;51.03;6.57;;;;;;;;;;5074603;28;20044;-63
2024/01/22 09:31:23;;;;;;;60.15;7.50;;;;;;;;;;5079201;28;20046;-64
2024/01/22 09:33:53;;;;;;;46.30;6.45;;;;;;;;;;5072151;28;20106;-64
2024/01/22 09:36:21;;;;;;;59.28;8.57;;;;;;;;;;5080087;28;20380;-63
2024/01/22 09:38:48;;;;;;;45.75;6.63;;;;;;;;;;5078857;28;20080;-63
2024/01/22 09:41:15;;;;;;;41.33;5.78;;;;;;;;;;5076826;28;20049;-63
2024/01/22 09:43:43;;;;;;;47.22;7.35;;;;;;;;;;5072965;28;20044;-64
2024/01/22 09:46:11;;;;;;;42.65;5.53;;;;;;;;;;5077213;28;20056;-63
2024/01/22 09:48:39;;;;;;;41.38;6.00;;;;;;;;;;5077983;28;20044;-63
2024/01/22 09:51:08;;;;;;;38.30;5.88;;;;;;;;;;5077745;28;20127;-63
2024/01/22 09:53:36;;;;;;;54.30;8.05;;;;;;;;;;5076307;28;20047;-63
2024/01/22 09:56:05;;;;;;;42.10;6.38;;;;;;;;;;5056142;28;20040;-63
2024/01/22 09:58:36;;;;;;;44.17;5.68;;;;;;;;;;5075732;28;20048;-63
2024/01/22 10:01:04;;;;;;;31.15;4.72;;;;;;;;;;5077818;28;20059;-63
2024/01/22 10:03:32;;;;;;;38.05;4.75;;;;;;;;;;5086286;28;20054;-64
2024/01/22 10:06:01;;;;;;;37.97;5.85;;;;;;;;;;5081885;28;20048;-63
2024/01/22 10:08:30;;;;;;;36.60;4.40;;;;;;;;;;5081499;28;20059;-63
2024/01/22 10:10:57;;;;;;;30.38;4.05;;;;;;;;;;5081903;28;20380;-63
2024/01/22 10:13:25;;;;;;;25.13;4.13;;;;;;;;;;5081263;28;20711;-64
2024/01/22 10:15:52;;;;;;;23.75;3.72;;;;;;;;;;5074390;28;20126;-63
2024/01/22 10:18:19;;;;;;;27.10;4.15;;;;;;;;;;5077908;28;20044;-64
2024/01/22 10:20:50;;;;;;;20.45;3.17;;;;;;;;;;5078754;28;20072;-63
2024/01/22 10:23:17;;;;;;;24.90;2.90;;;;;;;;;;5073714;28;20059;-64
2024/01/22 10:25:46;;;;;;;18.88;2.53;;;;;;;;;;5071887;28;20049;-64
2024/01/22 10:28:16;;;;;;;17.42;3.08;;;;;;;;;;5073208;28;20075;-64
2024/01/22 10:30:44;;;;;;;20.60;2.50;;;;;;;;;;5073422;28;20097;-63
2024/01/22 10:33:14;;;;;;;17.50;3.42;;;;;;;;;;5069434;28;20163;-63
2024/01/22 10:35:41;;;;;;;25.42;3.42;;;;;;;;;;5074960;28;20051;-63
2024/01/22 10:38:09;;;;;;;20.25;2.75;;;;;;;;;;5077591;28;20044;-64
2024/01/22 10:40:37;;;;;;;23.35;3.33;;;;;;;;;;5073978;28;20051;-63
2024/01/22 10:43:23;;;;;;;35.13;4.55;;;;;;;;;;5076847;28;20052;-63
2024/01/22 10:45:51;;;;;;;34.58;4.75;;;;;;;;;;5071163;28;20143;-63
2024/01/22 10:48:18;;;;;;;27.33;3.97;;;;;;;;;;5073049;28;20400;-63
2024/01/22 10:50:46;;;;;;;33.58;4.80;;;;;;;;;;5076455;28;20044;-63
2024/01/22 10:53:13;;;;;;;38.22;4.63;;;;;;;;;;5076704;28;20162;-63
2024/01/22 10:55:40;;;;;;;33.63;4.35;;;;;;;;;;5082672;28;20447;-63
2024/01/22 10:58:14;;;;;;;26.90;4.00;;;;;;;;;;5079659;28;20066;-63
2024/01/22 11:00:44;;;;;;;28.25;4.57;;;;;;;;;;5063545;28;20112;-63
2024/01/22 11:03:14;;;;;;;23.65;4.00;;;;;;;;;;5082330;28;20130;-63
2024/01/22 11:05:43;;;;;;;25.60;4.05;;;;;;;;;;5080401;28;20044;-63
2024/01/22 11:08:13;;;;;;;31.02;4.13;;;;;;;;;;5084783;28;20055;-63
2024/01/22 11:10:41;;;;;;;25.15;4.05;;;;;;;;;;5079567;28;20055;-63
2024/01/22 11:13:09;;;;;;;29.58;4.13;;;;;;;;;;5061879;28;20559;-64
2024/01/22 11:15:36;;;;;;;30.63;3.85;;;;;;;;;;5059768;28;20045;-63
2024/01/22 11:18:06;;;;;;;26.65;3.63;;;;;;;;;;5070476;28;20040;-63
2024/01/22 11:20:33;;;;;;;31.52;4.28;;;;;;;;;;5071202;28;20047;-63
2024/01/22 11:23:01;;;;;;;32.25;4.28;;;;;;;;;;5073593;28;20056;-63
2024/01/22 11:25:28;;;;;;;25.85;4.60;;;;;;;;;;5073409;28;20040;-63
2024/01/22 11:28:01;;;;;;;22.58;3.70;;;;;;;;;;5072189;28;20052;-63
2024/01/22 11:30:29;;;;;;;31.52;4.53;;;;;;;;;;5074517;28;20055;-63
2024/01/22 11:32:56;;;;;;;35.70;4.15;;;;;;;;;;5074362;28;20076;-64
2024/01/22 11:35:35;;;;;;;24.48;4.25;;;;;;;;;;5074848;28;20048;-63
2024/01/22 11:38:03;;;;;;;24.25;3.15;;;;;;;;;;5073352;28;20414;-63
2024/01/22 11:40:49;;;;;;;27.35;4.03;;;;;;;;;;5056435;28;20051;-63
2024/01/22 11:43:17;;;;;;;21.80;3.20;;;;;;;;;;5060902;28;20060;-64
2024/01/22 11:45:45;;;;;;;23.38;3.83;;;;;;;;;;5078212;28;20044;-63
2024/01/22 11:48:16;;;;;;;29.95;4.68;;;;;;;;;;5076216;28;20048;-63
2024/01/22 11:50:57;;;;;;;25.77;3.13;;;;;;;;;;5079065;28;20052;-63
2024/01/22 11:53:25;;;;;;;26.60;3.85;;;;;;;;;;5079415;28;20406;-63
2024/01/22 11:55:58;;;;;;;29.00;4.05;;;;;;;;;;5075045;28;20410;-64
2024/01/22 11:58:25;;;;;;;23.95;4.15;;;;;;;;;;5071835;28;20407;-63
2024/01/22 12:00:54;;;;;;;21.80;3.15;;;;;;;;;;5086098;28;20044;-63
2024/01/22 12:03:25;;;;;;;26.20;4.07;;;;;;;;;;5079059;28;20048;-63
2024/01/22 12:06:00;;;;;;;27.73;5.03;;;;;;;;;;5083937;28;20610;-64
2024/01/22 12:08:27;;;;;;;21.05;2.95;;;;;;;;;;5080034;28;20135;-64
2024/01/22 12:10:56;;;;;;;20.73;3.30;;;;;;;;;;5079043;28;20525;-63
2024/01/22 12:13:24;;;;;;;26.13;4.85;;;;;;;;;;5077161;28;20070;-63
2024/01/22 12:15:57;;;;;;;27.38;4.10;;;;;;;;;;5081071;28;20056;-63
2024/01/22 12:18:24;;;;;;;22.80;4.07;;;;;;;;;;5074559;28;20109;-64
2024/01/22 12:20:52;;;;;;;22.38;3.70;;;;;;;;;;5081707;28;20055;-63
2024/01/22 12:23:30;;;;;;;30.35;3.53;;;;;;;;;;5079455;28;20049;-63
2024/01/22 12:25:58;;;;;;;31.88;3.97;;;;;;;;;;5079835;28;20076;-64
2024/01/22 12:28:26;;;;;;;30.17;4.50;;;;;;;;;;5082250;28;20188;-64
2024/01/22 12:31:00;;;;;;;25.38;3.83;;;;;;;;;;5062521;28;20128;-63
2024/01/22 12:33:28;;;;;;;25.75;3.53;;;;;;;;;;5079574;28;20093;-63
2024/01/22 12:36:06;;;;;;;32.78;4.60;;;;;;;;;;5082415;28;20093;-63
2024/01/22 12:38:35;;;;;;;36.13;5.75;;;;;;;;;;5077840;28;20127;-63
2024/01/22 12:41:08;;;;;;;29.98;4.68;;;;;;;;;;5081167;28;20047;-64
2024/01/22 12:43:36;;;;;;;28.73;4.55;;;;;;;;;;5085099;28;20044;-63
2024/01/22 12:46:05;;;;;;;35.42;4.30;;;;;;;;;;5078735;28;20463;-63
2024/01/22 12:48:32;;;;;;;29.38;4.03;;;;;;;;;;5084907;28;20568;-63
2024/01/22 12:50:59;;;;;;;24.88;3.95;;;;;;;;;;5080721;28;20049;-63
2024/01/22 12:53:26;;;;;;;37.92;5.32;;;;;;;;;;5086381;28;20051;-63
2024/01/22 12:55:54;;;;;;;31.08;4.63;;;;;;;;;;5075513;28;20059;-63
2024/01/22 12:58:22;;;;;;;28.10;4.25;;;;;;;;;;5075025;28;20055;-64
2024/01/22 13:00:50;;;;;;;29.17;4.35;;;;;;;;;;5075831;28;20106;-64
2024/01/22 13:03:17;;;;;;;33.78;4.88;;;;;;;;;;5084347;28;20067;-63
2024/01/22 13:05:45;;;;;;;31.85;4.88;;;;;;;;;;5073903;28;20495;-64
2024/01/22 13:08:14;;;;;;;29.77;4.97;;;;;;;;;;5078987;28;20066;-63
2024/01/22 13:10:42;;;;;;;34.55;5.25;;;;;;;;;;5080547;28;20056;-63
2024/01/22 13:13:11;;;;;;;35.95;4.32;;;;;;;;;;5074547;28;20498;-63
2024/01/22 13:15:40;;;;;;;32.38;4.47;;;;;;;;;;5080583;28;20036;-64
2024/01/22 13:18:07;;;;;;;38.05;4.45;;;;;;;;;;5080864;28;20048;-64
2024/01/22 13:20:37;;;;;;;34.83;4.38;;;;;;;;;;5076032;28;20048;-64
2024/01/22 13:23:04;;;;;;;40.78;5.35;;;;;;;;;;5075530;28;20392;-64
2024/01/22 13:25:32;;;;;;;34.50;4.32;;;;;;;;;;5081357;28;20662;-64
2024/01/22 13:27:59;;;;;;;39.78;5.10;;;;;;;;;;5081305;28;20406;-64
2024/01/22 13:30:26;;;;;;;21.38;3.85;;;;;;;;;;5085361;28;20472;-64
2024/01/22 13:32:57;;;;;;;34.30;4.35;;;;;;;;;;5081030;28;20059;-63
2024/01/22 13:35:24;;;;;;;36.30;4.68;;;;;;;;;;5080245;28;20039;-63
2024/01/22 13:37:51;;;;;;;43.58;5.00;;;;;;;;;;5078181;28;20056;-64
2024/01/22 13:40:18;;;;;;;33.80;4.82;;;;;;;;;;5074988;28;20075;-64
2024/01/22 13:42:46;;;;;;;31.15;5.03;;;;;;;;;;5077572;28;20052;-64
2024/01/22 13:45:15;;;;;;;27.70;4.78;;;;;;;;;;5072781;28;20211;-64
2024/01/22 13:47:42;;;;;;;34.63;4.22;;;;;;;;;;5077208;28;20047;-64
2024/01/22 13:50:11;;;;;;;24.85;5.05;;;;;;;;;;5072030;28;20045;-64
2024/01/22 13:52:38;;;;;;;33.88;4.60;;;;;;;;;;5081024;28;20044;-64
2024/01/22 13:55:06;;;;;;;36.00;4.50;;;;;;;;;;5077084;28;20052;-64
2024/01/22 13:57:33;;;;;;;39.30;4.35;;;;;;;;;;5083410;28;20044;-64
2024/01/22 14:00:00;;;;;;;33.25;4.95;;;;;;;;;;5085390;28;20059;-64
2024/01/22 14:02:28;;;;;;;34.78;4.65;;;;;;;;;;5082868;28;20423;-64
2024/01/22 14:04:55;;;;;;;31.33;4.57;;;;;;;;;;5077923;28;20524;-64
2024/01/22 14:07:23;;;;;;;32.22;3.97;;;;;;;;;;5076939;28;20064;-64
2024/01/22 14:09:51;;;;;;;31.63;3.80;;;;;;;;;;5075088;28;20101;-64
2024/01/22 14:12:18;;;;;;;33.03;5.15;;;;;;;;;;5075523;28;20049;-64
2024/01/22 14:14:46;;;;;;;36.90;5.38;;;;;;;;;;5067589;28;20055;-64
2024/01/22 14:17:14;;;;;;;31.80;3.80;;;;;;;;;;5074518;28;20056;-64
2024/01/22 14:19:41;;;;;;;29.40;4.35;;;;;;;;;;5075464;28;20516;-64
2024/01/22 14:22:09;;;;;;;33.20;5.47;;;;;;;;;;5076028;28;20049;-64
2024/01/22 14:24:37;;;;;;;57.58;7.22;;;;;;;;;;5078089;28;20223;-64
2024/01/22 14:27:05;;;;;;;38.35;4.53;;;;;;;;;;5077267;28;20044;-64
2024/01/22 14:29:32;;;;;;;33.25;4.60;;;;;;;;;;5076495;28;20057;-64
2024/01/22 14:31:59;;;;;;;39.28;4.55;;;;;;;;;;5082334;28;20096;-64
2024/01/22 14:34:26;;;;;;;34.00;4.63;;;;;;;;;;5082221;28;20139;-64
2024/01/22 14:36:54;;;;;;;36.85;4.93;;;;;;;;;;5072595;28;20423;-64